createdAt,value
2019-03-20T00:02:52.354Z,166.10
2019-03-20T00:05:56.723Z,176.50
2019-03-20T00:09:01.188Z,176.60
2019-03-20T00:12:05.536Z,183.60
2019-03-20T00:15:11.281Z,181.73
2019-03-20T00:18:15.620Z,198.53
2019-03-20T00:21:19.946Z,202.87
2019-03-20T00:24:24.314Z,196.33
2019-03-20T00:27:28.730Z,190.93
2019-03-20T00:30:33.079Z,196.67
2019-03-20T00:33:37.476Z,201.87
2019-03-20T00:36:41.849Z,188.07
2019-03-20T00:39:46.280Z,194.83
2019-03-20T00:42:50.635Z,177.83
2019-03-20T00:45:55.028Z,159.70
2019-03-20T00:48:59.397Z,177.00
2019-03-20T00:52:03.785Z,186.47
2019-03-20T00:55:08.700Z,177.03
2019-03-20T00:58:13.084Z,158.63
2019-03-20T01:01:17.357Z,169.27
2019-03-20T01:04:21.672Z,153.13
2019-03-20T01:07:26.023Z,161.83
2019-03-20T01:10:30.371Z,171.03
2019-03-20T01:13:34.679Z,162.00
2019-03-20T01:16:39.096Z,175.60
2019-03-20T01:19:43.456Z,174.60
2019-03-20T01:22:47.964Z,182.43
2019-03-20T01:25:53.256Z,198.13
2019-03-20T01:28:57.641Z,202.73
2019-03-20T01:32:02.034Z,190.90
2019-03-20T01:35:06.462Z,199.37
2019-03-20T01:38:10.827Z,179.37
2019-03-20T01:41:15.283Z,211.43
2019-03-20T01:44:19.560Z,180.63
2019-03-20T01:47:23.906Z,189.50
2019-03-20T01:50:28.287Z,192.47
2019-03-20T01:53:32.660Z,168.40
2019-03-20T01:56:37.027Z,180.87
2019-03-20T01:59:41.401Z,178.57
2019-03-20T02:02:45.672Z,175.53
2019-03-20T02:05:50.012Z,182.43
2019-03-20T02:08:54.372Z,176.30
2019-03-20T02:11:58.793Z,185.00
2019-03-20T02:15:03.168Z,172.77
2019-03-20T02:18:07.584Z,178.73
2019-03-20T02:21:11.942Z,180.00
2019-03-20T02:24:16.363Z,190.00
2019-03-20T02:27:20.739Z,160.53
2019-03-20T02:30:25.130Z,137.70
2019-03-20T02:33:29.477Z,120.10
2019-03-20T02:36:33.890Z,126.57
2019-03-20T02:39:38.241Z,121.80
2019-03-20T02:42:42.603Z,114.27
2019-03-20T02:45:46.967Z,106.33
2019-03-20T02:48:51.373Z,100.17
2019-03-20T02:51:55.725Z,110.60
2019-03-20T02:55:00.431Z,116.83
2019-03-20T02:58:04.892Z,105.17
2019-03-20T03:01:09.299Z,94.80
2019-03-20T03:04:13.646Z,121.80
2019-03-20T03:07:17.964Z,102.33
2019-03-20T03:10:22.412Z,115.37
2019-03-20T03:13:26.792Z,111.83
2019-03-20T03:16:31.151Z,106.37
2019-03-20T03:19:35.556Z,116.63
2019-03-20T03:22:39.918Z,111.80
2019-03-20T03:25:44.327Z,113.37
2019-03-20T03:28:48.717Z,111.03
2019-03-20T03:31:53.117Z,109.43
2019-03-20T03:34:57.489Z,106.43
2019-03-20T03:38:01.873Z,114.87
2019-03-20T03:41:06.256Z,120.80
2019-03-20T03:44:10.696Z,112.00
2019-03-20T03:47:15.086Z,110.43
2019-03-20T03:50:19.507Z,108.97
2019-03-20T03:53:23.879Z,116.33
2019-03-20T03:56:28.310Z,130.30
2019-03-20T03:59:32.715Z,122.83
2019-03-20T04:02:37.106Z,147.63
2019-03-20T04:05:41.502Z,147.27
2019-03-20T04:08:45.877Z,145.33
2019-03-20T04:11:50.263Z,134.73
2019-03-20T04:14:54.747Z,146.47
2019-03-20T04:17:59.116Z,143.43
2019-03-20T04:21:03.493Z,145.63
2019-03-20T04:24:07.863Z,158.80
2019-03-20T04:27:12.241Z,142.37
2019-03-20T04:30:17.039Z,167.27
2019-03-20T04:33:21.428Z,148.27
2019-03-20T04:36:25.833Z,146.50
2019-03-20T04:39:30.222Z,163.23
2019-03-20T04:42:34.620Z,262.30
2019-03-20T04:45:39.094Z,298.37
2019-03-20T04:48:43.470Z,260.63
2019-03-20T04:51:47.864Z,202.67
2019-03-20T04:54:52.218Z,201.27
2019-03-20T04:57:56.623Z,198.97
2019-03-20T05:01:00.908Z,148.43
2019-03-20T05:04:05.368Z,151.43
2019-03-20T05:07:09.747Z,177.40
2019-03-20T05:10:14.206Z,250.27
2019-03-20T05:13:18.551Z,310.50
2019-03-20T05:16:22.928Z,358.63
2019-03-20T05:19:27.295Z,310.27
2019-03-20T05:22:31.685Z,339.73
2019-03-20T05:25:36.065Z,324.80
2019-03-20T05:28:40.463Z,321.53
2019-03-20T05:31:44.822Z,291.77
2019-03-20T05:34:49.272Z,289.43
2019-03-20T05:37:53.655Z,305.23
2019-03-20T05:40:58.051Z,255.77
2019-03-20T05:44:02.490Z,205.00
2019-03-20T05:47:06.892Z,155.33
2019-03-20T05:50:13.062Z,141.70
2019-03-20T05:53:17.431Z,134.10
2019-03-20T05:56:21.741Z,128.93
2019-03-20T05:59:26.138Z,138.77
2019-03-20T06:02:30.527Z,128.40
2019-03-20T06:05:35.303Z,138.30
2019-03-20T06:08:39.643Z,139.23
2019-03-20T06:11:44.049Z,144.10
2019-03-20T06:15:07.550Z,137.40
2019-03-20T06:18:12.004Z,126.27
2019-03-20T06:21:16.406Z,136.07
2019-03-20T06:24:20.769Z,140.23
2019-03-20T06:27:25.056Z,143.57
2019-03-20T06:30:29.456Z,141.70
2019-03-20T06:33:33.856Z,128.93
2019-03-20T06:36:38.228Z,145.60
2019-03-20T06:39:42.611Z,136.53
2019-03-20T06:42:47.004Z,142.63
2019-03-20T06:45:51.386Z,134.80
2019-03-20T06:48:55.835Z,148.67
2019-03-20T06:52:00.128Z,138.23
2019-03-20T06:55:05.017Z,151.00
2019-03-20T06:58:09.376Z,138.37
2019-03-20T07:01:25.543Z,148.73
2019-03-20T07:04:41.200Z,144.40
2019-03-20T07:07:45.351Z,156.10
2019-03-20T07:11:18.231Z,164.23
2019-03-20T07:14:22.622Z,160.87
2019-03-20T07:17:27.010Z,175.47
2019-03-20T07:20:31.493Z,168.30
2019-03-20T07:23:35.820Z,172.43
2019-03-20T07:26:40.214Z,155.63
2019-03-20T07:29:44.577Z,166.37
2019-03-20T07:32:48.974Z,162.93
2019-03-20T07:35:53.334Z,180.43
2019-03-20T07:38:57.724Z,167.17
2019-03-20T07:42:02.180Z,159.60
2019-03-20T07:45:07.829Z,154.27
2019-03-20T07:48:21.596Z,167.80
2019-03-20T07:51:18.290Z,147.67
2019-03-20T07:54:22.649Z,150.17
2019-03-20T07:57:27.086Z,144.10
2019-03-20T08:00:31.431Z,145.03
2019-03-20T08:03:35.881Z,133.53
2019-03-20T08:06:40.250Z,153.23
2019-03-20T08:09:45.578Z,141.23
2019-03-20T08:12:49.937Z,141.93
2019-03-20T08:15:54.700Z,116.47
2019-03-20T08:18:59.066Z,131.80
2019-03-20T08:22:03.534Z,122.00
2019-03-20T08:25:07.996Z,128.20
2019-03-20T08:28:12.392Z,115.43
2019-03-20T08:31:16.700Z,107.67
2019-03-20T08:34:21.541Z,94.60
2019-03-20T08:37:25.914Z,95.07
2019-03-20T08:40:30.496Z,68.00
2019-03-20T08:43:34.828Z,59.50
2019-03-20T08:46:39.229Z,62.27
2019-03-20T08:49:43.623Z,45.07
2019-03-20T08:52:48.042Z,39.43
2019-03-20T08:55:52.428Z,33.80
2019-03-20T08:58:56.841Z,27.20
2019-03-20T09:02:01.224Z,27.03
2019-03-20T09:05:07.912Z,30.13
2019-03-20T09:08:12.204Z,35.13
2019-03-20T09:11:16.674Z,32.50
2019-03-20T09:14:21.032Z,33.27
2019-03-20T09:17:25.423Z,33.40
2019-03-20T09:20:29.876Z,32.07
2019-03-20T09:23:34.386Z,32.43
2019-03-20T09:26:38.747Z,29.97
2019-03-20T09:29:43.114Z,36.93
2019-03-20T09:32:48.398Z,31.40
2019-03-20T09:35:52.757Z,29.00
2019-03-20T09:38:57.144Z,33.73
2019-03-20T09:42:01.577Z,28.57
2019-03-20T09:45:07.274Z,32.43
2019-03-20T09:48:11.712Z,31.90
2019-03-20T09:51:16.056Z,23.73
2019-03-20T09:54:20.482Z,22.80
2019-03-20T09:57:24.849Z,19.67
2019-03-20T10:00:29.217Z,15.93
2019-03-20T10:03:33.560Z,21.70
2019-03-20T10:06:37.894Z,22.47
2019-03-20T10:09:42.235Z,21.63
2019-03-20T10:12:46.854Z,19.33
2019-03-20T10:15:51.124Z,19.37
2019-03-20T10:18:55.514Z,21.43
2019-03-20T10:21:59.880Z,24.17
2019-03-20T10:25:06.297Z,24.27
2019-03-20T10:28:10.640Z,22.23
2019-03-20T10:31:14.947Z,27.60
2019-03-20T10:34:19.303Z,28.23
2019-03-20T10:37:23.718Z,28.10
2019-03-20T10:40:28.085Z,22.53
2019-03-20T10:43:32.493Z,26.43
2019-03-20T10:46:36.904Z,28.30
2019-03-20T10:49:41.291Z,26.77
2019-03-20T10:52:45.661Z,23.17
2019-03-20T10:55:51.910Z,25.63
2019-03-20T10:58:56.108Z,26.80
2019-03-20T11:02:00.989Z,26.33
2019-03-20T11:05:06.595Z,26.77
2019-03-20T11:08:12.947Z,29.33
2019-03-20T11:11:26.597Z,26.47
2019-03-20T11:14:23.850Z,30.97
2019-03-20T11:17:28.223Z,25.80
2019-03-20T11:20:32.618Z,31.83
2019-03-20T11:23:36.985Z,26.40
2019-03-20T11:26:41.387Z,32.13
2019-03-20T11:29:45.765Z,28.07
2019-03-20T11:32:50.200Z,27.47
2019-03-20T11:35:54.551Z,31.17
2019-03-20T11:38:58.966Z,32.97
2019-03-20T11:42:06.495Z,29.53
2019-03-20T11:45:12.097Z,26.70
2019-03-20T11:48:16.448Z,37.03
2019-03-20T11:51:20.776Z,28.43
2019-03-20T11:54:25.144Z,25.80
2019-03-20T11:57:29.508Z,28.83
2019-03-20T12:00:33.972Z,25.03
2019-03-20T12:03:38.381Z,23.83
2019-03-20T12:06:42.736Z,27.40
2019-03-20T12:09:47.128Z,25.37
2019-03-20T12:12:51.504Z,22.20
2019-03-20T12:15:55.987Z,24.87
2019-03-20T12:19:00.389Z,27.57
2019-03-20T12:22:04.768Z,24.37
2019-03-20T12:25:11.399Z,24.67
2019-03-20T12:28:15.987Z,23.27
2019-03-20T12:31:20.357Z,23.40
2019-03-20T12:34:24.735Z,23.33
2019-03-20T12:37:29.106Z,21.53
2019-03-20T12:40:33.493Z,24.63
2019-03-20T12:43:37.890Z,23.43
2019-03-20T12:46:42.372Z,16.97
2019-03-20T12:49:46.687Z,19.97
2019-03-20T12:52:51.065Z,19.23
2019-03-20T12:55:55.418Z,19.23
2019-03-20T12:58:59.843Z,22.73
2019-03-20T13:02:04.194Z,20.73
2019-03-20T13:05:09.677Z,22.17
2019-03-20T13:08:14.063Z,21.47
2019-03-20T13:11:19.572Z,17.30
2019-03-20T13:14:23.961Z,18.90
2019-03-20T13:17:28.347Z,19.47
2019-03-20T13:20:32.619Z,18.47
2019-03-20T13:23:36.990Z,22.73
2019-03-20T13:26:41.333Z,20.13
2019-03-20T13:29:45.753Z,20.73
2019-03-20T13:32:50.114Z,25.83
2019-03-20T13:35:54.557Z,21.80
2019-03-20T13:38:58.921Z,25.70
2019-03-20T13:42:03.299Z,20.70
2019-03-20T13:45:11.048Z,18.97
2019-03-20T13:48:15.506Z,24.67
2019-03-20T13:51:19.871Z,25.87
2019-03-20T13:54:24.255Z,25.37
2019-03-20T13:57:28.642Z,23.10
2019-03-20T14:00:32.982Z,18.47
2019-03-20T14:03:37.408Z,26.37
2019-03-20T14:06:41.809Z,22.07
2019-03-20T14:09:46.161Z,25.23
2019-03-20T14:12:50.567Z,25.37
2019-03-20T14:15:55.022Z,18.87
2019-03-20T14:18:59.488Z,21.03
2019-03-20T14:22:03.916Z,24.17
2019-03-20T14:25:08.932Z,20.63
2019-03-20T14:28:13.326Z,22.07
2019-03-20T14:31:19.321Z,24.13
2019-03-20T14:34:25.810Z,21.53
2019-03-20T14:37:30.222Z,22.20
2019-03-20T14:40:36.531Z,20.60
2019-03-20T14:43:41.284Z,25.57
2019-03-20T14:46:45.687Z,23.57
2019-03-20T14:49:50.131Z,20.63
2019-03-20T14:52:54.540Z,19.67
2019-03-20T14:55:58.962Z,22.63
2019-03-20T14:59:03.367Z,22.00
2019-03-20T15:02:07.788Z,22.00
2019-03-20T15:05:12.140Z,21.43
2019-03-20T15:08:16.773Z,22.37
2019-03-20T15:11:21.125Z,25.33
2019-03-20T15:14:25.647Z,19.03
2019-03-20T15:17:30.205Z,20.50
2019-03-20T15:20:35.087Z,18.07
2019-03-20T15:23:39.616Z,18.70
2019-03-20T15:26:46.754Z,17.40
2019-03-20T15:29:52.137Z,23.10
2019-03-20T15:32:56.738Z,25.63
2019-03-20T15:36:01.148Z,22.77
2019-03-20T15:39:07.815Z,21.27
2019-03-20T15:42:12.184Z,23.43
2019-03-20T15:45:17.634Z,20.07
2019-03-20T15:48:22.031Z,19.00
2019-03-20T15:51:35.182Z,19.43
2019-03-20T15:54:39.676Z,18.93
2019-03-20T15:57:44.242Z,19.53
2019-03-20T16:00:48.816Z,23.10
2019-03-20T16:03:53.219Z,17.93
2019-03-20T16:06:57.601Z,21.50
2019-03-20T16:10:02.001Z,22.00
2019-03-20T16:13:06.525Z,20.60
2019-03-20T16:16:10.953Z,21.60
2019-03-20T16:19:15.349Z,17.33
2019-03-20T16:22:22.424Z,23.00
2019-03-20T16:25:26.841Z,17.27
2019-03-20T16:28:31.353Z,19.03
2019-03-20T16:31:36.470Z,20.37
2019-03-20T16:34:40.889Z,20.77
2019-03-20T16:37:45.270Z,19.03
2019-03-20T16:40:49.981Z,19.10
2019-03-20T16:43:55.041Z,19.77
2019-03-20T16:46:59.472Z,16.03
2019-03-20T16:50:04.005Z,20.40
2019-03-20T16:53:09.651Z,19.70
2019-03-20T16:56:14.075Z,20.47
2019-03-20T16:59:18.515Z,22.87
2019-03-20T17:02:22.891Z,18.37
2019-03-20T17:05:27.295Z,19.13
2019-03-20T17:08:31.728Z,17.13
2019-03-20T17:11:38.567Z,20.73
2019-03-20T17:14:42.243Z,27.13
2019-03-20T17:17:46.659Z,25.37
2019-03-20T17:20:51.385Z,23.83
2019-03-20T17:23:56.485Z,27.00
2019-03-20T17:27:00.886Z,32.43
2019-03-20T17:30:06.647Z,31.23
2019-03-20T17:33:11.038Z,37.37
2019-03-20T17:36:15.435Z,35.33
2019-03-20T17:39:19.815Z,38.17
2019-03-20T17:42:24.218Z,39.67
2019-03-20T17:45:29.505Z,34.10
2019-03-20T17:48:33.927Z,41.33
2019-03-20T17:51:38.351Z,40.17
2019-03-20T17:54:42.811Z,45.63
2019-03-20T17:57:47.234Z,41.40
2019-03-20T18:00:51.951Z,52.07
2019-03-20T18:03:56.328Z,52.77
2019-03-20T18:07:00.751Z,53.10
2019-03-20T18:10:05.434Z,58.73
2019-03-20T18:13:09.968Z,67.87
2019-03-20T18:16:14.268Z,74.97
2019-03-20T18:19:18.701Z,80.77
2019-03-20T18:22:23.072Z,85.03
2019-03-20T18:25:27.896Z,88.13
2019-03-20T18:28:32.358Z,92.17
2019-03-20T18:31:45.771Z,90.23
2019-03-20T18:34:42.842Z,96.47
2019-03-20T18:37:47.378Z,91.40
2019-03-20T18:40:51.737Z,96.80
2019-03-20T18:43:56.290Z,102.33
2019-03-20T18:47:01.387Z,117.00
2019-03-20T18:50:06.681Z,114.63
2019-03-20T18:53:11.060Z,120.57
2019-03-20T18:56:15.521Z,121.77
2019-03-20T18:59:22.970Z,123.70
2019-03-20T19:02:29.040Z,131.43
2019-03-20T19:05:42.822Z,122.80
2019-03-20T19:08:49.480Z,122.10
2019-03-20T19:11:53.895Z,122.63
2019-03-20T19:14:58.631Z,129.33
2019-03-20T19:18:03.269Z,133.80
2019-03-20T19:21:09.376Z,142.97
2019-03-20T19:24:14.805Z,130.50
2019-03-20T19:28:03.377Z,135.50
2019-03-20T19:31:04.649Z,130.20
2019-03-20T19:34:27.915Z,148.53
2019-03-20T19:38:03.998Z,138.20
2019-03-20T19:41:09.003Z,140.73
2019-03-20T19:44:13.437Z,134.37
2019-03-20T19:47:18.963Z,145.50
2019-03-20T19:50:23.397Z,142.17
2019-03-20T19:53:28.022Z,139.73
2019-03-20T19:56:32.415Z,139.17
2019-03-20T19:59:36.896Z,137.20
2019-03-20T20:02:42.460Z,132.60
2019-03-20T20:05:46.975Z,127.70
2019-03-20T20:08:51.796Z,131.97
2019-03-20T20:11:56.240Z,137.30
2019-03-20T20:15:00.876Z,139.87
2019-03-20T20:18:05.524Z,142.23
2019-03-20T20:21:11.724Z,138.90
2019-03-20T20:24:16.329Z,154.53
2019-03-20T20:27:20.729Z,149.33
2019-03-20T20:30:25.151Z,157.93
2019-03-20T20:33:29.538Z,161.23
2019-03-20T20:36:34.063Z,174.00
2019-03-20T20:39:38.468Z,167.67
2019-03-20T20:42:43.462Z,174.10
2019-03-20T20:45:47.988Z,174.90
2019-03-20T20:48:52.435Z,182.00
2019-03-20T20:51:56.890Z,180.63
2019-03-20T20:55:01.439Z,188.57
2019-03-20T20:58:06.440Z,180.03
2019-03-20T21:01:11.130Z,177.87
2019-03-20T21:04:15.599Z,168.20
2019-03-20T21:07:21.408Z,177.03
2019-03-20T21:10:25.816Z,172.90
2019-03-20T21:13:30.712Z,182.90
2019-03-20T21:16:36.028Z,178.83
2019-03-20T21:19:41.350Z,176.20
2019-03-20T21:23:32.262Z,180.47
2019-03-20T21:26:40.185Z,180.30
2019-03-20T21:30:29.096Z,181.40
2019-03-20T21:34:03.839Z,181.83
2019-03-20T21:38:00.176Z,187.47
2019-03-20T21:42:10.023Z,193.50
2019-03-20T21:45:45.961Z,205.00
2019-03-20T21:48:50.910Z,182.60
2019-03-20T21:51:55.808Z,198.57
2019-03-20T21:55:50.814Z,181.03
2019-03-20T21:59:24.128Z,169.93
2019-03-20T22:02:47.911Z,170.87
2019-03-20T22:06:38.231Z,172.70
2019-03-20T22:10:32.487Z,164.73
2019-03-20T22:13:50.387Z,177.40
2019-03-20T22:17:50.096Z,150.90
2019-03-20T22:21:17.188Z,152.87
2019-03-20T22:24:55.741Z,160.70
2019-03-20T22:28:27.564Z,166.80
2019-03-20T22:31:33.315Z,157.33
2019-03-20T22:34:53.479Z,153.23
2019-03-20T22:37:59.544Z,157.50
2019-03-20T22:41:36.884Z,161.50
2019-03-20T22:45:07.072Z,163.67
2019-03-20T22:48:51.583Z,167.10
2019-03-20T22:52:42.035Z,163.97
2019-03-20T22:56:25.408Z,171.00
2019-03-20T22:59:30.331Z,164.47
2019-03-20T23:02:44.163Z,158.77
2019-03-20T23:05:49.096Z,170.27
2019-03-20T23:08:54.012Z,171.17
2019-03-20T23:12:01.292Z,169.90
2019-03-20T23:15:09.225Z,170.53
2019-03-20T23:18:14.101Z,172.13
2019-03-20T23:21:19.011Z,162.97
2019-03-20T23:24:23.954Z,166.20
2019-03-20T23:27:31.751Z,173.70
2019-03-20T23:30:36.676Z,165.77
2019-03-20T23:33:41.507Z,160.77
2019-03-20T23:36:46.530Z,161.23
2019-03-20T23:39:51.430Z,161.77
2019-03-20T23:42:56.386Z,159.07
2019-03-20T23:46:01.273Z,158.43
2019-03-20T23:49:12.719Z,159.20
2019-03-20T23:52:17.630Z,147.37
2019-03-20T23:55:22.565Z,152.77
2019-03-20T23:58:27.474Z,151.43
